Time;durP1;ratioP1;P1;durP2;ratioP2;P2;SDS_P1;SDS_P2;PMS_P1;PMS_P2;Temp;Humidity;BMP_temperature;BMP_pressure;BME280_temperature;BME280_humidity;BME280_pressure;Samples;Min_cycle;Max_cycle;Signal;HPM_P1;HPM_P2
2022/03/25 00:03:53;;;;;;;23.87;11.80;;;5.90;99.90;;;;;;20893530;28;20384;-75
2022/03/25 00:13:54;;;;;;;24.40;11.23;;;5.70;99.90;;;;;;20893036;28;20037;-75
2022/03/25 00:23:55;;;;;;;22.33;10.60;;;5.40;99.90;;;;;;20909993;28;20477;-75
2022/03/25 00:33:56;;;;;;;25.87;11.67;;;5.40;99.90;;;;;;20890624;28;20067;-75
2022/03/25 00:43:57;;;;;;;26.03;11.47;;;5.10;99.90;;;;;;20891066;28;20653;-75
2022/03/25 00:53:58;;;;;;;25.85;12.25;;;5.10;99.90;;;;;;20908130;28;20040;-75
2022/03/25 01:04:00;;;;;;;24.43;11.43;;;4.90;99.90;;;;;;20907935;28;20029;-75
2022/03/25 01:14:01;;;;;;;22.75;10.80;;;4.80;99.90;;;;;;20907500;28;20706;-75
2022/03/25 01:24:04;;;;;;;26.38;11.93;;;4.90;99.90;;;;;;20889169;28;20040;-75
2022/03/25 01:34:05;;;;;;;27.83;11.52;;;4.80;99.90;;;;;;20889479;28;20029;-75
2022/03/25 01:44:11;;;;;;;29.67;12.10;;;4.50;99.90;;;;;;20889153;28;20048;-75
2022/03/25 01:54:30;;;;;;;28.65;12.35;;;4.30;99.90;;;;;;20903892;28;20037;-75
2022/03/25 02:04:32;;;;;;;29.30;11.52;;;4.30;99.90;;;;;;20921429;28;20035;-75
2022/03/25 02:14:33;;;;;;;24.40;11.35;;;4.10;99.90;;;;;;20902629;28;20064;-75
2022/03/25 02:24:35;;;;;;;24.67;11.13;;;4.10;99.90;;;;;;20944436;23;20040;-75
2022/03/25 02:34:37;;;;;;;23.70;11.13;;;4.10;99.90;;;;;;20983730;28;20128;-75
2022/03/25 02:44:38;;;;;;;25.35;12.65;;;4.20;99.90;;;;;;21001221;28;20021;-75
2022/03/25 02:54:39;;;;;;;27.40;12.60;;;4.10;99.90;;;;;;20981883;28;20391;-75
2022/03/25 03:04:40;;;;;;;28.10;13.25;;;3.60;99.90;;;;;;20998078;28;20067;-74
2022/03/25 03:14:41;;;;;;;;;;;3.40;99.90;;;;;;20980994;28;20483;-75
2022/03/25 03:24:42;;;;;;;26.98;12.38;;;3.40;99.90;;;;;;21000014;28;20003;-75
2022/03/25 03:34:42;;;;;;;;;;;3.20;99.90;;;;;;20971000;28;20144;-75
2022/03/25 03:44:43;;;;;;;27.50;12.33;;;3.20;99.90;;;;;;20995862;28;19923;-75
2022/03/25 03:54:44;;;;;;;;;;;3.10;99.90;;;;;;20990688;28;20386;-75
2022/03/25 04:04:44;;;;;;;33.35;12.95;;;3.00;99.90;;;;;;21011899;28;19921;-75
2022/03/25 04:14:45;;;;;;;;;;;2.80;99.90;;;;;;20996804;28;20031;-74
2022/03/25 04:24:46;;;;;;;29.23;11.77;;;2.70;99.90;;;;;;20994219;28;19926;-73
2022/03/25 04:34:47;;;;;;;26.88;12.45;;;2.80;99.90;;;;;;20992018;28;20510;-75
2022/03/25 04:44:48;;;;;;;;;;;2.80;99.90;;;;;;20992089;28;20035;-75
2022/03/25 04:54:48;;;;;;;32.10;12.27;;;2.40;99.90;;;;;;20991105;28;19955;-75
2022/03/25 05:04:49;;;;;;;;;;;2.30;99.90;;;;;;20973029;28;20756;-75
2022/03/25 05:14:50;;;;;;;29.55;11.73;;;2.40;99.90;;;;;;20990152;28;19912;-75
2022/03/25 05:24:51;;;;;;;;;;;2.50;99.90;;;;;;21005579;28;20393;-75
2022/03/25 05:34:51;;;;;;;32.23;11.53;;;2.30;99.90;;;;;;20988110;28;20389;-75
2022/03/25 05:44:52;;;;;;;;;;;2.40;99.90;;;;;;21005734;28;20279;-73
2022/03/25 05:54:53;;;;;;;26.33;11.13;;;2.30;99.90;;;;;;20986868;28;19963;-75
2022/03/25 06:04:55;;;;;;;;;;;2.60;99.90;;;;;;21004402;28;20067;-75
2022/03/25 06:14:56;;;;;;;27.60;12.13;;;3.00;99.90;;;;;;21003490;28;19924;-75
2022/03/25 06:24:57;;;;;;;25.17;11.70;;;3.50;99.90;;;;;;21002325;28;20040;-74
2022/03/25 06:34:58;;;;;;;28.13;12.63;;;4.50;99.90;;;;;;20979362;28;20123;-75
2022/03/25 06:44:58;;;;;;;22.87;11.67;;;5.20;99.90;;;;;;20999043;28;20475;-76
2022/03/25 06:55:00;;;;;;;31.07;13.43;;;5.80;99.90;;;;;;21000078;28;20048;-75
2022/03/25 07:05:01;;;;;;;26.38;12.73;;;6.50;99.90;;;;;;20999620;28;20056;-76
2022/03/25 07:15:03;;;;;;;30.63;14.43;;;6.90;99.90;;;;;;20998466;28;20037;-76
2022/03/25 07:25:04;;;;;;;25.00;13.23;;;7.40;99.90;;;;;;20997761;28;20043;-76
2022/03/25 07:35:06;;;;;;;29.35;15.35;;;8.00;99.90;;;;;;21001707;28;20103;-75
2022/03/25 07:45:09;;;;;;;23.42;13.85;;;9.00;99.90;;;;;;20995384;28;20398;-76
2022/03/25 07:55:10;;;;;;;29.58;13.85;;;10.60;99.90;;;;;;20995137;28;20368;-76
2022/03/25 08:05:13;;;;;;;34.72;15.05;;;11.70;99.90;;;;;;20994664;28;20123;-75
2022/03/25 08:15:14;;;;;;;28.90;14.75;;;12.10;99.90;;;;;;20976163;28;20048;-76
2022/03/25 08:35:36;;;;;;;28.75;15.18;;;13.60;99.90;;;;;;20891673;28;20171;-75
2022/03/25 08:45:37;;;;;;;28.38;14.98;;;13.50;99.90;;;;;;20909386;28;20112;-75
2022/03/25 08:55:38;;;;;;;30.30;15.80;;;14.70;99.90;;;;;;20907626;28;20071;-75
2022/03/25 09:05:39;;;;;;;32.27;16.67;;;16.50;99.90;;;;;;20907805;28;20033;-76
2022/03/25 09:15:40;;;;;;;29.27;15.20;;;16.80;97.80;;;;;;20907426;28;20058;-76
2022/03/25 09:25:41;;;;;;;26.63;15.03;;;17.20;97.10;;;;;;20907129;28;20033;-76
2022/03/25 09:35:42;;;;;;;35.63;15.73;;;18.30;94.40;;;;;;20888716;28;20411;-76
2022/03/25 09:45:43;;;;;;;31.88;15.02;;;19.00;92.10;;;;;;20747267;28;20038;-76
2022/03/25 09:55:46;;;;;;;28.47;15.70;;;19.30;92.70;;;;;;20746967;28;20059;-76
2022/03/25 10:05:57;;;;;;;30.90;17.30;;;19.70;91.60;;;;;;20748399;28;20108;-75
2022/03/25 10:15:58;;;;;;;;;;;21.60;91.00;;;;;;20756536;28;20026;-76
2022/03/25 10:26:00;;;;;;;30.23;16.53;;;21.70;88.90;;;;;;20756026;28;19920;-76
2022/03/25 10:36:09;;;;;;;28.38;16.27;;;21.90;80.60;;;;;;20754520;28;20794;-75
2022/03/25 10:46:35;;;;;;;29.90;16.33;;;22.60;81.80;;;;;;20736271;28;20042;-76
2022/03/25 10:56:48;;;;;;;28.92;16.48;;;22.40;85.90;;;;;;20753157;28;20026;-75
2022/03/25 11:06:49;;;;;;;27.80;15.57;;;21.20;76.90;;;;;;20745642;28;20038;-76
2022/03/25 11:16:56;;;;;;;21.38;14.02;;;22.30;80.10;;;;;;20750578;28;20461;-75
2022/03/25 11:27:00;;;;;;;24.92;14.15;;;21.00;79.90;;;;;;20764138;28;20033;-75
2022/03/25 11:37:37;;;;;;;28.63;14.30;;;21.60;79.90;;;;;;20749156;28;20116;-76
2022/03/25 11:47:38;;;;;;;20.63;13.73;;;23.40;69.80;;;;;;20730872;28;20068;-76
2022/03/25 11:57:39;;;;;;;25.50;14.33;;;23.50;70.10;;;;;;20748507;28;20045;-76
2022/03/25 12:08:18;;;;;;;24.40;13.27;;;22.80;74.50;;;;;;20731131;28;20030;-76
2022/03/25 12:18:44;;;;;;;21.80;13.57;;;23.30;67.40;;;;;;20746962;28;20101;-76
2022/03/25 12:28:50;;;;;;;21.48;13.13;;;23.20;73.10;;;;;;20745609;28;20496;-76
2022/03/25 12:38:55;;;;;;;26.23;14.05;;;24.20;63.90;;;;;;20732356;28;20029;-76
2022/03/25 12:49:04;;;;;;;25.67;13.88;;;24.50;64.00;;;;;;20747786;28;20030;-75
2022/03/25 12:59:05;;;;;;;28.77;13.20;;;23.90;61.20;;;;;;20746727;28;20503;-76
2022/03/25 13:09:06;;;;;;;21.25;13.40;;;24.00;59.90;;;;;;20728880;28;20030;-76
2022/03/25 13:19:07;;;;;;;21.27;12.10;;;23.60;64.00;;;;;;20744703;28;20488;-76
2022/03/25 13:29:09;;;;;;;24.73;12.97;;;24.10;62.20;;;;;;20743182;28;20497;-76
2022/03/25 13:39:17;;;;;;;21.60;11.43;;;23.80;59.20;;;;;;20744249;28;20034;-76
2022/03/25 13:49:17;;;;;;;14.88;9.93;;;23.70;59.40;;;;;;20758852;28;20041;-76
2022/03/25 13:59:40;;;;;;;19.63;11.43;;;23.90;54.80;;;;;;20756376;28;20038;-75
2022/03/25 14:09:41;;;;;;;;;;;22.40;56.90;;;;;;20816510;28;20029;-76
2022/03/25 14:19:42;;;;;;;16.17;9.63;;;23.20;57.00;;;;;;20857605;28;19936;-77
2022/03/25 14:29:43;;;;;;;22.43;12.50;;;23.50;55.20;;;;;;21043146;22;20048;-78
2022/03/25 14:39:44;;;;;;;21.23;13.13;;;23.70;55.70;;;;;;21063622;28;20035;-79
2022/03/25 14:49:45;;;;;;;19.80;11.87;;;22.70;58.40;;;;;;21073481;28;20066;-79
2022/03/25 14:59:49;;;;;;;20.52;11.85;;;23.10;58.40;;;;;;21095126;28;20032;-80
2022/03/25 15:09:50;;;;;;;17.63;10.95;;;23.00;57.70;;;;;;21074058;28;20031;-80
2022/03/25 15:19:51;;;;;;;23.70;12.30;;;21.80;56.80;;;;;;21089668;28;20067;-80
2022/03/25 15:40:12;;;;;;;19.67;11.80;;;22.40;55.80;;;;;;21054087;28;20036;-79
2022/03/25 15:50:13;;;;;;;19.10;11.18;;;22.20;56.80;;;;;;21078169;28;20074;-75
2022/03/25 16:00:14;;;;;;;;;;;21.50;57.50;;;;;;21074309;28;20241;-76
2022/03/25 16:10:16;;;;;;;25.20;11.55;;;20.70;58.90;;;;;;21089266;28;19923;-78
2022/03/25 16:20:17;;;;;;;21.15;11.48;;;20.10;59.30;;;;;;21090036;28;20068;-80
2022/03/25 16:30:18;;;;;;;19.70;12.10;;;20.00;61.80;;;;;;21107731;28;20047;-80
2022/03/25 16:40:20;;;;;;;22.53;12.00;;;19.90;59.10;;;;;;21106760;28;20422;-78
2022/03/25 16:50:21;;;;;;;20.33;12.15;;;19.60;62.00;;;;;;21105839;28;20698;-78
2022/03/25 17:00:22;;;;;;;23.03;12.07;;;19.30;60.20;;;;;;21106559;28;20092;-80
2022/03/25 17:10:23;;;;;;;19.37;10.63;;;19.00;63.50;;;;;;21106157;28;20036;-81
2022/03/25 17:20:24;;;;;;;21.47;9.73;;;18.10;69.00;;;;;;21102504;28;20398;-81
2022/03/25 17:30:27;;;;;;;21.50;10.87;;;17.00;74.50;;;;;;21104375;28;20046;-78
2022/03/25 17:40:28;;;;;;;24.30;12.57;;;16.30;74.40;;;;;;21088165;28;20096;-78
2022/03/25 17:50:29;;;;;;;27.42;12.35;;;16.10;72.50;;;;;;21120381;28;20036;-78
2022/03/25 18:00:30;;;;;;;21.00;12.20;;;15.50;75.50;;;;;;21131180;28;20049;-80
2022/03/25 18:10:32;;;;;;;26.07;12.43;;;15.20;76.70;;;;;;21093123;28;20057;-77
2022/03/25 18:20:33;;;;;;;27.92;12.90;;;14.80;78.10;;;;;;21085342;28;20613;-78
2022/03/25 18:30:34;;;;;;;29.20;13.43;;;14.50;77.60;;;;;;21086261;28;20051;-78
2022/03/25 18:40:36;;;;;;;25.20;13.57;;;14.20;79.30;;;;;;21109110;28;20062;-78
2022/03/25 18:50:38;;;;;;;31.60;13.52;;;13.60;80.20;;;;;;21093621;28;20120;-79
2022/03/25 19:00:39;;;;;;;26.77;14.10;;;13.30;82.00;;;;;;21088514;28;20114;-77
2022/03/25 19:10:40;;;;;;;24.23;12.37;;;13.10;80.90;;;;;;21087946;28;20046;-77
2022/03/25 19:20:41;;;;;;;28.07;13.00;;;12.90;80.90;;;;;;21089564;28;20050;-77
2022/03/25 19:30:42;;;;;;;28.70;14.00;;;13.20;78.60;;;;;;21090128;28;20024;-77
2022/03/25 19:40:45;;;;;;;27.80;15.17;;;13.10;80.00;;;;;;21090658;28;20038;-78
2022/03/25 19:50:46;;;;;;;33.40;15.57;;;12.80;82.00;;;;;;21093184;28;20028;-79
2022/03/25 20:00:47;;;;;;;28.30;14.43;;;12.50;84.00;;;;;;21084913;28;20031;-79
2022/03/25 20:10:47;;;;;;;38.90;17.50;;;12.20;83.60;;;;;;21089204;28;20390;-76
2022/03/25 20:20:48;;;;;;;31.60;15.97;;;12.10;83.90;;;;;;21080950;28;20103;-76
2022/03/25 20:30:50;;;;;;;32.73;15.37;;;11.90;84.70;;;;;;20973523;22;20064;-78
2022/03/25 20:40:51;;;;;;;27.90;13.73;;;11.70;85.70;;;;;;20857454;28;20037;-77
2022/03/25 20:50:51;;;;;;;30.23;14.67;;;11.40;87.40;;;;;;20834817;28;20484;-77
2022/03/25 21:00:54;;;;;;;34.20;16.47;;;11.40;86.70;;;;;;20834081;28;20053;-78
2022/03/25 21:10:56;;;;;;;31.08;15.13;;;11.30;86.50;;;;;;20835403;28;20058;-77
2022/03/25 21:20:56;;;;;;;32.45;17.10;;;11.40;86.50;;;;;;20841429;28;20120;-77
2022/03/25 21:30:58;;;;;;;36.73;15.87;;;10.90;88.00;;;;;;20839156;28;20037;-78
2022/03/25 21:40:59;;;;;;;36.17;15.70;;;10.70;89.70;;;;;;20834631;28;20029;-78
2022/03/25 21:51:00;;;;;;;28.20;14.00;;;10.50;90.50;;;;;;20834884;28;20494;-77
2022/03/25 22:01:01;;;;;;;;;;;10.80;88.30;;;;;;20839804;28;20076;-78
2022/03/25 22:11:04;;;;;;;36.75;15.38;;;10.90;88.10;;;;;;20831265;28;20260;-76
2022/03/25 22:21:05;;;;;;;31.48;16.02;;;10.70;89.00;;;;;;20838276;28;20395;-75
2022/03/25 22:31:07;;;;;;;37.63;15.43;;;10.50;90.20;;;;;;20836436;28;20499;-75
2022/03/25 22:41:08;;;;;;;39.25;16.17;;;10.00;91.30;;;;;;20833999;28;20096;-75
2022/03/25 22:51:09;;;;;;;36.03;16.97;;;10.30;90.40;;;;;;20833838;28;20060;-77
2022/03/25 23:01:13;;;;;;;39.10;17.27;;;10.10;91.20;;;;;;20826138;28;20064;-77
2022/03/25 23:11:14;;;;;;;39.95;16.50;;;10.00;91.40;;;;;;20809576;28;20119;-77
2022/03/25 23:21:16;;;;;;;38.80;16.90;;;9.80;91.50;;;;;;20817798;28;20041;-76
2022/03/25 23:31:18;;;;;;;42.08;16.80;;;10.10;91.20;;;;;;20827841;28;20591;-78
2022/03/25 23:41:19;;;;;;;34.90;16.75;;;10.00;91.30;;;;;;20823991;28;20120;-76
2022/03/25 23:51:21;;;;;;;37.53;17.77;;;9.80;91.70;;;;;;20815723;28;20120;-76
